KTCC/TCC METAR and TAF weather

Enter ICAO airport designator
Station Type Date Time Source
KTCC METAR 2022/12/10 00:53 UTC NOAA

KTCC 100053Z AUTO 00000KT 10SM CLR 08/M02 A3001 RMK AO2 SLP166 T00781022


Station Type Date Time Source
KTCC Decoded METAR 2022/12/10 00:53 UTC NOAA

TUCUMCARI MUNICIPAL AIRPORT , NM, United States (KTCC) 35-11N 103-36W 1235M
Dec 09, 2022 - 07:53 PM EST / 2022.12.10 0053 UTC
Wind: Calm:0
Visibility: 10 mile(s):0
Sky conditions: clear
Temperature: 46.0 F (7.8 C)
Dew Point: 28.0 F (-2.2 C)
Relative Humidity: 49%
Pressure (altimeter): 30.01 in. Hg (1016 hPa)
ob: KTCC 100053Z AUTO 00000KT 10SM CLR 08/M02 A3001 RMK AO2 SLP166 T00781022
cycle: 1

Station Type Date Time Source
KTCC TAF 2022/12/09 18:33 UTC NOAA

TAF KTCC 091730Z 0918/1018 30008KT P6SM BKN250
FM091900 21008KT P6SM FEW040 SCT250
FM100500 24007KT P6SM FEW035
FM100900 29007KT P6SM FEW150

Example: see airport list